Time;durP1;ratioP1;P1;durP2;ratioP2;P2;SDS_P1;SDS_P2;PMS_P1;PMS_P2;Temp;Humidity;BMP_temperature;BMP_pressure;BME280_temperature;BME280_humidity;BME280_pressure;Samples;Min_cycle;Max_cycle;Signal;HPM_P1;HPM_P2
2021/07/10 00:00:07;;;;;;;4.63;3.30;;;;;;;18.17;92.28;100904.56;5041895;28;20202;-69
2021/07/10 00:02:37;;;;;;;23.37;4.40;;;;;;;18.14;92.24;100912.19;5041799;28;20734;-69
2021/07/10 00:05:06;;;;;;;6.33;3.57;;;;;;;18.12;92.33;100890.59;5050901;28;20880;-70
2021/07/10 00:07:35;;;;;;;5.50;3.53;;;;;;;18.18;92.68;100891.84;5047637;28;20226;-70
2021/07/10 00:10:06;;;;;;;6.47;3.70;;;;;;;18.21;92.47;100891.53;5054673;28;20196;-70
2021/07/10 00:12:34;;;;;;;6.40;3.83;;;;;;;18.24;92.38;100874.94;5050873;28;20205;-70
2021/07/10 00:15:03;;;;;;;4.73;3.80;;;;;;;18.23;92.80;100871.34;5048918;28;20315;-70
2021/07/10 00:17:32;;;;;;;5.83;3.67;;;;;;;18.28;92.17;100874.47;5050434;28;20206;-70
2021/07/10 00:20:01;;;;;;;5.87;4.40;;;;;;;18.28;92.70;100877.19;5041659;28;20198;-70
2021/07/10 00:22:29;;;;;;;9.43;4.23;;;;;;;18.32;92.87;100869.59;5042093;28;20198;-69
2021/07/10 00:24:57;;;;;;;8.43;3.77;;;;;;;18.28;92.41;100871.75;5050401;28;20202;-69
2021/07/10 00:27:26;;;;;;;8.63;4.17;;;;;;;18.31;93.20;100868.72;5045226;28;20484;-70
2021/07/10 00:29:54;;;;;;;13.77;4.40;;;;;;;18.36;92.59;100865.53;5042642;28;20625;-69
2021/07/10 00:32:22;;;;;;;7.70;4.07;;;;;;;18.37;93.25;100860.97;5044469;28;20744;-70
2021/07/10 00:34:51;;;;;;;5.43;3.90;;;;;;;18.25;93.19;100839.44;5045598;28;20210;-70
2021/07/10 00:37:20;;;;;;;7.13;3.87;;;;;;;18.42;93.25;100861.41;5051605;28;20202;-70
2021/07/10 00:39:49;;;;;;;6.23;3.97;;;;;;;18.45;92.56;100859.22;5050845;28;20194;-70
2021/07/10 00:42:21;;;;;;;5.80;4.37;;;;;;;18.43;93.43;100857.66;5056899;28;20748;-69
2021/07/10 00:44:51;;;;;;;5.53;3.80;;;;;;;18.23;93.37;100808.81;5047296;28;20202;-69
2021/07/10 00:47:19;;;;;;;5.80;3.97;;;;;;;18.39;93.47;100842.66;5043953;28;20754;-70
2021/07/10 00:49:48;;;;;;;4.87;3.90;;;;;;;18.39;93.40;100837.22;5046840;28;20298;-71
2021/07/10 00:52:16;;;;;;;4.97;4.10;;;;;;;18.42;94.02;100848.66;5044384;28;20641;-70
2021/07/10 00:54:45;;;;;;;5.20;3.53;;;;;;;18.45;93.39;100836.59;5050352;28;20205;-69
2021/07/10 00:57:14;;;;;;;6.37;4.67;;;;;;;18.43;93.79;100842.19;5048925;28;20578;-69
2021/07/10 00:59:42;;;;;;;6.30;4.07;;;;;;;18.41;94.25;100840.66;5035184;28;20213;-70
2021/07/10 01:02:13;;;;;;;6.83;4.00;;;;;;;18.38;94.09;100830.06;5040052;28;20559;-70
2021/07/10 01:04:41;;;;;;;5.13;4.20;;;;;;;18.52;93.46;100815.94;5040760;28;20213;-70
2021/07/10 01:07:11;;;;;;;5.63;4.20;;;;;;;18.49;93.35;100817.09;5043671;28;20757;-68
2021/07/10 01:09:40;;;;;;;4.77;4.10;;;;;;;18.42;93.90;100810.56;5041326;28;20206;-69
2021/07/10 01:12:10;;;;;;;9.20;4.20;;;;;;;18.52;94.23;100810.50;5040335;28;20194;-68
2021/07/10 01:14:38;;;;;;;9.47;4.30;;;;;;;18.47;94.64;100819.13;5054532;28;20214;-68
2021/07/10 01:17:06;;;;;;;9.97;4.40;;;;;;;18.43;94.75;100816.88;5042075;28;20263;-69
2021/07/10 01:19:34;;;;;;;7.30;3.60;;;;;;;18.26;94.32;100769.59;5042206;28;20205;-69
2021/07/10 01:22:10;;;;;;;6.87;4.17;;;;;;;18.52;94.88;100810.50;5038913;28;20711;-69
2021/07/10 01:24:38;;;;;;;7.07;4.70;;;;;;;18.50;94.53;100815.25;5041180;28;20689;-69
2021/07/10 01:27:06;;;;;;;8.07;4.27;;;;;;;18.42;95.67;100804.28;5043452;28;20237;-69
2021/07/10 01:29:37;;;;;;;7.63;4.50;;;;;;;18.40;95.10;100796.28;5046245;28;20206;-69
2021/07/10 01:32:06;;;;;;;5.83;3.80;;;;;;;18.49;95.25;100787.19;5044049;28;20230;-69
2021/07/10 01:34:35;;;;;;;7.03;4.17;;;;;;;18.46;95.32;100773.91;5043892;28;20234;-69
2021/07/10 01:37:03;;;;;;;5.50;4.07;;;;;;;18.39;94.94;100761.06;5042534;28;20205;-69
2021/07/10 01:39:33;;;;;;;8.67;4.20;;;;;;;18.53;95.24;100774.97;5045921;28;20189;-70
2021/07/10 01:42:01;;;;;;;7.47;4.07;;;;;;;18.54;95.04;100781.28;5044789;28;20365;-68
2021/07/10 01:44:29;;;;;;;8.87;4.27;;;;;;;18.56;95.28;100768.38;5044111;28;20194;-68
2021/07/10 01:46:57;;;;;;;8.00;4.33;;;;;;;18.55;95.11;100774.81;5041668;28;20221;-69
2021/07/10 01:49:26;;;;;;;8.43;4.67;;;;;;;18.54;95.56;100765.81;5043809;28;20206;-69
2021/07/10 01:51:54;;;;;;;11.70;4.43;;;;;;;18.65;94.85;100761.19;5043974;28;20200;-69
2021/07/10 01:54:22;;;;;;;9.03;4.40;;;;;;;18.68;94.36;100753.59;5042596;28;20205;-69
2021/07/10 01:56:52;;;;;;;7.00;4.37;;;;;;;18.62;94.97;100751.47;5042490;28;20296;-68
2021/07/10 01:59:20;;;;;;;12.33;4.77;;;;;;;18.60;95.64;100753.44;5041270;28;20198;-68
2021/07/10 02:01:50;;;;;;;8.43;4.70;;;;;;;18.67;95.48;100754.56;5041865;28;20213;-69
2021/07/10 02:04:22;;;;;;;5.90;4.60;;;;;;;18.66;95.51;100738.41;5040808;28;20236;-69
2021/07/10 02:06:50;;;;;;;10.63;4.70;;;;;;;18.67;94.91;100732.78;5044295;28;20206;-69
2021/07/10 02:09:19;;;;;;;7.20;4.53;;;;;;;18.67;95.58;100730.06;5042540;28;20228;-69
2021/07/10 02:11:48;;;;;;;12.50;5.37;;;;;;;18.51;95.19;100694.56;5039694;28;20525;-69
2021/07/10 02:14:19;;;;;;;11.13;4.97;;;;;;;18.75;95.14;100719.28;5043473;28;20249;-70
2021/07/10 02:16:49;;;;;;;14.63;4.50;;;;;;;18.47;94.99;100664.09;5038863;28;20209;-69
2021/07/10 02:19:18;;;;;;;8.40;4.80;;;;;;;18.74;94.76;100705.84;5040999;28;20221;-69
2021/07/10 02:21:46;;;;;;;12.47;5.00;;;;;;;18.87;94.67;100700.81;5041694;28;20193;-69
2021/07/10 02:24:14;;;;;;;9.07;4.87;;;;;;;18.87;94.13;100703.56;5039352;28;20297;-69
2021/07/10 02:26:43;;;;;;;5.70;4.67;;;;;;;18.88;94.67;100686.22;5040097;28;20206;-69
2021/07/10 02:29:11;;;;;;;17.47;5.70;;;;;;;18.99;93.63;100687.84;5041309;28;20579;-69
2021/07/10 02:31:40;;;;;;;8.27;5.07;;;;;;;19.08;93.10;100681.41;5040735;28;20242;-69
2021/07/10 02:34:08;;;;;;;12.63;4.77;;;;;;;19.07;93.53;100682.44;5044205;28;20197;-69
2021/07/10 02:36:37;;;;;;;11.77;4.90;;;;;;;18.98;93.69;100688.81;5041743;28;20201;-69
2021/07/10 02:39:06;;;;;;;7.00;4.57;;;;;;;19.05;93.32;100684.47;5038057;28;20296;-68
2021/07/10 02:41:34;;;;;;;11.93;5.30;;;;;;;19.05;93.48;100688.03;5042409;28;20603;-69
2021/07/10 02:44:02;;;;;;;6.20;4.60;;;;;;;19.17;92.91;100685.91;5042126;28;20528;-68
2021/07/10 02:46:30;;;;;;;9.13;5.20;;;;;;;19.22;92.75;100661.75;5047095;28;20197;-69
2021/07/10 02:49:00;;;;;;;15.47;5.07;;;;;;;19.34;92.06;100656.91;5039128;28;20217;-69
2021/07/10 02:51:28;;;;;;;8.87;5.07;;;;;;;19.32;91.93;100662.50;5039871;28;20576;-69
2021/07/10 02:53:57;;;;;;;13.37;5.17;;;;;;;19.39;91.42;100671.72;5041670;28;20197;-69
2021/07/10 02:56:25;;;;;;;9.60;4.40;;;;;;;19.40;91.00;100676.16;5042973;28;20209;-69
2021/07/10 02:58:53;;;;;;;10.17;5.00;;;;;;;19.32;91.49;100672.56;5042764;28;20609;-69
2021/07/10 03:01:22;;;;;;;7.43;4.73;;;;;;;19.27;92.08;100670.28;5042986;28;20214;-68
2021/07/10 03:03:51;;;;;;;10.63;5.10;;;;;;;19.27;92.08;100662.13;5041585;28;20209;-68
2021/07/10 03:06:20;;;;;;;11.47;5.47;;;;;;;19.30;92.30;100675.44;5038885;28;20213;-68
2021/07/10 03:08:48;;;;;;;12.43;5.80;;;;;;;19.24;93.34;100676.06;5041143;28;20224;-68
2021/07/10 03:11:16;;;;;;;8.87;5.10;;;;;;;19.29;92.64;100689.22;5042713;28;20205;-68
2021/07/10 03:13:45;;;;;;;10.63;4.80;;;;;;;19.38;92.80;100693.69;5033798;28;20582;-68
2021/07/10 03:16:13;;;;;;;11.57;5.40;;;;;;;19.39;92.62;100681.78;5056669;28;20197;-68
2021/07/10 03:18:41;;;;;;;9.00;5.23;;;;;;;19.41;93.02;100688.75;5048355;28;20190;-68
2021/07/10 03:21:10;;;;;;;12.83;5.23;;;;;;;19.34;93.22;100693.16;5045750;28;20209;-69
2021/07/10 03:23:39;;;;;;;11.63;5.70;;;;;;;19.37;93.75;100698.28;5048900;28;20799;-69
2021/07/10 03:26:07;;;;;;;9.77;5.43;;;;;;;19.30;94.25;100671.84;5044046;28;20194;-70
2021/07/10 03:28:35;;;;;;;11.77;5.97;;;;;;;19.31;94.36;100679.00;5042438;28;20225;-69
2021/07/10 03:31:03;;;;;;;9.70;5.87;;;;;;;19.37;94.77;100671.03;5045767;28;20209;-67
2021/07/10 03:33:34;;;;;;;15.57;6.23;;;;;;;19.11;94.47;100613.88;5042099;28;20257;-68
2021/07/10 03:36:05;;;;;;;11.30;6.27;;;;;;;19.49;94.44;100669.72;5049300;28;20422;-69
2021/07/10 03:38:33;;;;;;;13.00;6.63;;;;;;;19.56;93.79;100647.28;5050803;28;20580;-69
2021/07/10 03:41:03;;;;;;;9.33;6.10;;;;;;;19.37;92.93;100605.66;5044542;28;20206;-68
2021/07/10 03:43:31;;;;;;;12.10;6.17;;;;;;;19.73;92.70;100659.97;5054311;28;20198;-69
2021/07/10 03:46:02;;;;;;;13.27;6.10;;;;;;;19.78;93.02;100676.69;5049901;28;20285;-69
2021/07/10 03:48:31;;;;;;;9.73;6.17;;;;;;;19.63;92.74;100654.66;5051551;28;20293;-69
2021/07/10 03:50:59;;;;;;;12.43;6.10;;;;;;;19.90;91.74;100688.13;5049368;28;20209;-68
2021/07/10 03:53:27;;;;;;;14.27;6.50;;;;;;;19.94;92.09;100682.19;5053194;28;20227;-69
2021/07/10 03:55:55;;;;;;;9.53;6.27;;;;;;;19.92;92.51;100691.56;5052777;28;20198;-70
2021/07/10 03:58:25;;;;;;;12.37;6.93;;;;;;;19.97;91.55;100694.66;5044477;28;20269;-71
2021/07/10 04:00:53;;;;;;;13.10;6.30;;;;;;;19.95;91.72;100692.09;5045898;28;20213;-70
2021/07/10 04:03:21;;;;;;;9.20;5.93;;;;;;;20.05;91.56;100695.50;5052399;28;20574;-70
2021/07/10 04:05:49;;;;;;;11.97;6.43;;;;;;;20.02;92.42;100695.84;5047695;28;20205;-70
2021/07/10 04:08:17;;;;;;;10.40;6.07;;;;;;;20.01;92.22;100696.88;5048440;28;20194;-70
2021/07/10 04:10:45;;;;;;;19.33;7.47;;;;;;;20.02;92.18;100698.56;5049820;28;20665;-70
2021/07/10 04:13:14;;;;;;;12.13;7.07;;;;;;;20.07;92.31;100693.47;5039493;28;20207;-70
2021/07/10 04:15:44;;;;;;;17.27;7.23;;;;;;;20.03;92.95;100680.34;5047482;28;20229;-71
2021/07/10 04:18:12;;;;;;;11.33;6.00;;;;;;;20.03;92.73;100683.91;5038182;28;20204;-70
2021/07/10 04:20:40;;;;;;;12.70;6.43;;;;;;;20.04;93.46;100691.06;5037722;28;20229;-70
2021/07/10 04:23:08;;;;;;;11.27;6.67;;;;;;;19.81;93.78;100643.63;5042025;28;20186;-71
2021/07/10 04:25:36;;;;;;;15.43;6.97;;;;;;;20.00;94.41;100676.06;5048357;28;20209;-71
2021/07/10 04:28:05;;;;;;;15.03;7.03;;;;;;;20.07;94.17;100679.84;5033265;28;20309;-69
2021/07/10 04:30:33;;;;;;;15.70;7.17;;;;;;;19.89;93.82;100645.53;5034670;28;20677;-70
2021/07/10 04:33:03;;;;;;;15.93;7.63;;;;;;;20.11;94.22;100680.34;5033817;28;20231;-72
2021/07/10 04:35:32;;;;;;;15.20;7.30;;;;;;;20.05;93.96;100661.94;5035395;28;20214;-70
2021/07/10 04:38:00;;;;;;;10.77;7.33;;;;;;;20.17;94.15;100672.34;5036628;28;20218;-70
2021/07/10 04:40:28;;;;;;;14.47;8.33;;;;;;;20.18;94.50;100670.47;5049290;28;20204;-70
2021/07/10 04:42:56;;;;;;;14.67;7.43;;;;;;;20.25;93.75;100668.81;5044413;28;20221;-70
2021/07/10 04:45:25;;;;;;;13.90;7.70;;;;;;;20.19;94.46;100665.88;5046672;28;20193;-70
2021/07/10 04:47:53;;;;;;;14.90;8.10;;;;;;;20.15;94.70;100666.22;5035977;28;20707;-70
2021/07/10 04:50:22;;;;;;;15.97;8.80;;;;;;;20.23;94.56;100664.53;5048486;28;20685;-70
2021/07/10 04:52:51;;;;;;;20.10;9.17;;;;;;;20.31;94.66;100673.56;5051710;28;20225;-70
2021/07/10 04:55:19;;;;;;;15.13;9.30;;;;;;;20.31;94.08;100664.53;5032882;28;20209;-70
2021/07/10 04:57:48;;;;;;;17.30;8.73;;;;;;;20.13;94.43;100640.97;5035936;28;20641;-71
2021/07/10 05:00:17;;;;;;;25.50;8.90;;;;;;;20.40;94.45;100669.00;5041986;28;20222;-71
2021/07/10 05:02:45;;;;;;;20.73;9.27;;;;;;;20.32;94.70;100667.09;5037364;28;20202;-71
2021/07/10 05:05:14;;;;;;;18.13;8.93;;;;;;;20.37;95.49;100664.72;5044362;28;20203;-71
2021/07/10 05:07:45;;;;;;;15.97;8.70;;;;;;;20.42;94.67;100667.81;5037606;28;20194;-71
2021/07/10 05:10:14;;;;;;;17.77;7.57;;;;;;;20.50;94.70;100668.81;5044918;28;20221;-71
2021/07/10 05:12:42;;;;;;;10.70;6.87;;;;;;;20.14;94.72;100585.41;5049571;28;20947;-71
2021/07/10 05:15:12;;;;;;;11.53;7.33;;;;;;;20.65;94.16;100656.22;5042607;28;20580;-71
2021/07/10 05:17:40;;;;;;;11.20;6.60;;;;;;;20.67;93.97;100655.03;5045694;28;20768;-71
2021/07/10 05:20:09;;;;;;;9.27;6.20;;;;;;;20.73;94.53;100648.88;5044033;28;20678;-71
2021/07/10 05:22:38;;;;;;;10.70;4.77;;;;;;;20.74;95.29;100649.72;5034520;28;20198;-71
2021/07/10 05:25:09;;;;;;;11.20;5.10;;;;;;;20.77;95.11;100642.03;5047196;28;20770;-71
2021/07/10 05:27:37;;;;;;;7.60;5.07;;;;;;;20.92;95.11;100642.19;5037611;28;20212;-71
2021/07/10 05:30:08;;;;;;;7.43;5.40;;;;;;;20.72;95.76;100598.03;5053575;28;20738;-71
2021/07/10 05:32:36;;;;;;;7.00;5.17;;;;;;;21.03;96.05;100639.09;5039328;28;20775;-71
2021/07/10 05:35:06;;;;;;;10.53;5.03;;;;;;;21.13;95.36;100632.59;5052279;28;20313;-71
2021/07/10 05:37:34;;;;;;;8.17;5.03;;;;;;;21.22;95.42;100632.41;5042299;28;20557;-71
2021/07/10 05:40:04;;;;;;;8.67;5.63;;;;;;;21.31;94.79;100645.03;5053357;28;20243;-72
2021/07/10 05:42:33;;;;;;;8.57;5.67;;;;;;;21.29;95.69;100627.09;5044922;28;20209;-73
2021/07/10 05:45:01;;;;;;;7.63;5.40;;;;;;;21.35;95.69;100646.38;5048057;28;20216;-70
2021/07/10 05:47:29;;;;;;;6.63;5.20;;;;;;;21.37;95.19;100641.59;5040495;28;20359;-71
2021/07/10 05:49:57;;;;;;;10.27;6.20;;;;;;;21.45;96.00;100632.53;5054541;28;20607;-71
2021/07/10 05:52:26;;;;;;;12.73;7.13;;;;;;;21.50;95.33;100634.72;5044057;28;20661;-71
2021/07/10 05:54:54;;;;;;;11.50;7.40;;;;;;;21.55;95.06;100637.78;5036748;28;20576;-71
2021/07/10 05:57:22;;;;;;;11.87;7.50;;;;;;;21.60;94.47;100635.34;5042848;28;20541;-71
2021/07/10 05:59:51;;;;;;;12.37;7.20;;;;;;;21.67;94.57;100639.06;5045763;28;20281;-71
2021/07/10 06:02:20;;;;;;;14.77;8.87;;;;;;;21.60;94.45;100646.28;5052352;28;20649;-71
2021/07/10 06:04:48;;;;;;;18.73;9.33;;;;;;;21.64;94.90;100645.75;5043591;28;20599;-70
2021/07/10 06:07:16;;;;;;;12.53;8.20;;;;;;;21.67;94.41;100630.88;5041770;28;20273;-71
2021/07/10 06:09:44;;;;;;;15.73;9.23;;;;;;;21.81;94.59;100648.41;5037503;28;20217;-70
2021/07/10 06:12:12;;;;;;;15.90;9.43;;;;;;;21.83;94.63;100644.47;5047325;28;20234;-70
2021/07/10 06:14:40;;;;;;;15.70;9.27;;;;;;;21.89;94.18;100638.28;5038771;28;20202;-70
2021/07/10 06:17:10;;;;;;;16.27;9.03;;;;;;;21.92;93.99;100637.06;5045756;28;20208;-70
2021/07/10 06:19:38;;;;;;;16.63;9.77;;;;;;;21.87;94.09;100625.81;5046614;28;20208;-70
2021/07/10 06:22:11;;;;;;;16.93;9.47;;;;;;;22.01;94.24;100642.28;5043233;28;20669;-69
2021/07/10 06:24:39;;;;;;;20.90;10.33;;;;;;;22.05;93.55;100639.25;5045074;28;20205;-70
2021/07/10 06:27:07;;;;;;;19.20;10.13;;;;;;;22.09;93.43;100644.16;5049674;28;20302;-71
2021/07/10 06:29:36;;;;;;;21.37;10.40;;;;;;;22.17;93.46;100646.00;5043091;28;20202;-71
2021/07/10 06:32:07;;;;;;;20.67;10.70;;;;;;;22.13;93.72;100636.44;5044850;28;20229;-71
2021/07/10 06:34:36;;;;;;;19.90;11.23;;;;;;;22.21;93.75;100648.19;5058940;28;20185;-71
2021/07/10 06:37:05;;;;;;;23.53;11.57;;;;;;;22.24;93.71;100650.56;5053312;28;20293;-71
2021/07/10 06:39:34;;;;;;;25.27;12.00;;;;;;;22.25;93.83;100651.41;5054793;28;20699;-71
2021/07/10 06:42:03;;;;;;;19.00;10.93;;;;;;;22.31;93.63;100651.50;5052785;28;20197;-72
2021/07/10 06:44:31;;;;;;;19.10;10.97;;;;;;;22.42;92.91;100653.00;5053071;28;20656;-70
2021/07/10 06:47:00;;;;;;;17.90;10.73;;;;;;;22.40;92.68;100651.47;5053834;28;20203;-70
2021/07/10 06:49:28;;;;;;;21.03;11.23;;;;;;;22.46;92.56;100643.38;5054581;28;20198;-70
2021/07/10 06:51:57;;;;;;;21.20;10.50;;;;;;;22.48;91.91;100645.94;5044749;28;20532;-71
2021/07/10 06:54:26;;;;;;;22.57;10.60;;;;;;;22.54;91.70;100646.03;5049872;28;20192;-70
2021/07/10 06:56:55;;;;;;;17.57;10.77;;;;;;;22.59;91.34;100643.59;5048682;28;20197;-70
2021/07/10 06:59:23;;;;;;;18.63;10.00;;;;;;;22.71;91.54;100637.69;5061886;28;20208;-71
2021/07/10 07:01:51;;;;;;;16.07;9.60;;;;;;;22.69;90.71;100634.28;5055261;28;20193;-71
2021/07/10 07:04:20;;;;;;;22.23;9.43;;;;;;;22.77;90.05;100635.06;5053375;28;20193;-71
2021/07/10 07:06:48;;;;;;;17.13;9.73;;;;;;;22.82;89.71;100637.25;5049753;28;20197;-70
2021/07/10 07:09:17;;;;;;;16.33;8.83;;;;;;;22.81;89.36;100638.31;5057576;28;20198;-70
2021/07/10 07:11:45;;;;;;;17.17;9.23;;;;;;;22.97;89.90;100635.41;5046930;28;20703;-71
2021/07/10 07:14:13;;;;;;;16.17;9.20;;;;;;;23.03;89.03;100631.06;5051358;28;20205;-71
2021/07/10 07:16:42;;;;;;;14.77;9.27;;;;;;;23.07;87.93;100646.09;5056190;28;20201;-71
2021/07/10 07:19:10;;;;;;;15.23;8.60;;;;;;;23.21;87.26;100643.34;5060036;28;20523;-71
2021/07/10 07:21:38;;;;;;;13.30;8.20;;;;;;;23.13;86.95;100651.66;5060454;28;20201;-71
2021/07/10 07:24:07;;;;;;;16.27;8.77;;;;;;;23.09;87.02;100644.88;5062421;28;20197;-71
2021/07/10 07:26:37;;;;;;;15.40;8.20;;;;;;;23.09;86.40;100647.59;5063049;28;20193;-70
2021/07/10 07:29:05;;;;;;;12.17;7.80;;;;;;;22.99;85.51;100637.97;5060448;28;20511;-71
2021/07/10 07:31:34;;;;;;;12.03;7.40;;;;;;;23.29;85.18;100644.31;5063303;28;20734;-71
2021/07/10 07:34:02;;;;;;;12.53;7.70;;;;;;;23.34;85.23;100641.84;5060242;28;20202;-71
2021/07/10 07:36:30;;;;;;;10.83;7.50;;;;;;;23.39;84.61;100636.66;5058483;28;20202;-71
2021/07/10 07:38:59;;;;;;;11.57;7.10;;;;;;;23.60;84.03;100647.72;5056209;28;20201;-72
2021/07/10 07:41:27;;;;;;;11.50;7.40;;;;;;;23.28;83.79;100585.91;5054696;28;20281;-72
2021/07/10 07:43:56;;;;;;;10.80;7.37;;;;;;;23.85;83.30;100638.09;5053393;28;20197;-71
2021/07/10 07:46:25;;;;;;;15.17;7.87;;;;;;;23.96;82.86;100649.63;5058231;28;20566;-71
2021/07/10 07:48:53;;;;;;;13.97;7.13;;;;;;;24.04;81.64;100650.38;5044478;28;20735;-71
2021/07/10 07:51:21;;;;;;;10.80;7.17;;;;;;;24.20;81.67;100652.03;5064953;28;20300;-72
2021/07/10 07:53:50;;;;;;;11.80;7.80;;;;;;;24.29;80.96;100653.63;5055315;28;20197;-71
2021/07/10 07:56:21;;;;;;;11.07;7.17;;;;;;;24.59;80.64;100650.75;5057214;28;20490;-72
2021/07/10 07:58:49;;;;;;;8.77;6.60;;;;;;;24.92;78.80;100660.13;5058964;28;20272;-71
2021/07/10 08:01:20;;;;;;;10.73;6.53;;;;;;;25.05;77.08;100651.97;5056521;28;20358;-70
2021/07/10 08:03:50;;;;;;;9.93;6.30;;;;;;;25.17;76.16;100651.44;5061604;28;20251;-70
2021/07/10 08:06:24;;;;;;;10.03;6.93;;;;;;;25.25;75.85;100654.03;5051756;28;20229;-69
2021/07/10 08:08:53;;;;;;;10.37;6.83;;;;;;;25.24;74.06;100653.19;5061073;28;20302;-70
2021/07/10 08:11:24;;;;;;;9.83;6.73;;;;;;;25.34;73.53;100648.16;5054852;28;20248;-71
2021/07/10 08:13:53;;;;;;;9.27;6.37;;;;;;;25.56;72.86;100648.91;5051610;28;20692;-70
2021/07/10 08:16:24;;;;;;;9.20;6.20;;;;;;;25.26;72.48;100661.22;5057784;28;20890;-70
2021/07/10 08:18:54;;;;;;;10.20;6.50;;;;;;;25.19;73.91;100650.19;5047324;28;20520;-70
2021/07/10 08:21:24;;;;;;;9.93;6.67;;;;;;;25.36;73.53;100639.69;5055146;28;20202;-70
2021/07/10 08:23:53;;;;;;;8.48;6.07;;;;;;;25.32;70.95;100650.25;5049647;28;20213;-70
2021/07/10 08:26:22;;;;;;;10.30;6.23;;;;;;;25.30;71.47;100641.38;5054895;28;20566;-71
2021/07/10 08:28:50;;;;;;;7.97;5.87;;;;;;;25.51;71.71;100645.09;5046962;28;20213;-71
2021/07/10 08:31:19;;;;;;;10.07;6.55;;;;;;;25.68;71.15;100643.69;5055377;28;20217;-70
2021/07/10 08:33:51;;;;;;;12.73;7.13;;;;;;;25.72;70.65;100653.28;5049707;28;20205;-70
2021/07/10 08:36:19;;;;;;;9.07;6.50;;;;;;;25.55;70.00;100652.72;5050579;28;20209;-71
2021/07/10 08:38:47;;;;;;;8.70;6.38;;;;;;;25.44;70.68;100650.56;5055226;28;20198;-70
2021/07/10 08:41:15;;;;;;;10.65;6.70;;;;;;;25.45;71.55;100649.50;5051022;28;20569;-71
2021/07/10 08:43:44;;;;;;;8.17;5.80;;;;;;;25.43;70.13;100645.25;5053153;28;20324;-71
2021/07/10 08:46:15;;;;;;;9.20;5.67;;;;;;;25.44;70.99;100661.56;5054942;28;20208;-72
2021/07/10 08:48:43;;;;;;;7.38;5.47;;;;;;;24.92;68.98;100599.66;5055488;28;20201;-71
2021/07/10 08:51:14;;;;;;;8.03;4.60;;;;;;;25.13;68.95;100655.66;5069223;28;20233;-71
2021/07/10 08:53:42;;;;;;;7.20;4.90;;;;;;;25.27;69.67;100661.03;5055095;28;20209;-71
2021/07/10 08:56:10;;;;;;;9.17;5.43;;;;;;;25.21;69.22;100659.09;5055283;28;20284;-71
2021/07/10 08:58:39;;;;;;;9.87;5.20;;;;;;;25.29;70.34;100652.56;5057644;28;20608;-71
2021/07/10 09:01:09;;;;;;;8.57;5.35;;;;;;;25.33;70.24;100660.22;5055107;28;20186;-70
2021/07/10 09:03:40;;;;;;;8.57;5.23;;;;;;;25.63;70.43;100649.78;5056412;28;20622;-69
2021/07/10 09:06:09;;;;;;;6.93;4.03;;;;;;;25.56;68.90;100654.41;5049756;28;20548;-71
2021/07/10 09:08:43;;;;;;;6.43;3.80;;;;;;;25.42;67.18;100655.41;5053040;28;20208;-70
2021/07/10 09:11:14;;;;;;;6.10;4.00;;;;;;;25.54;67.07;100653.78;5056507;28;20221;-70
2021/07/10 09:13:43;;;;;;;4.93;3.53;;;;;;;25.57;66.91;100639.63;5051209;28;20202;-69
2021/07/10 09:16:17;;;;;;;5.95;3.88;;;;;;;25.64;66.48;100643.22;5051185;28;20686;-73
2021/07/10 09:18:48;;;;;;;4.80;3.70;;;;;;;25.83;66.27;100643.56;5053631;28;20229;-73
2021/07/10 09:21:34;;;;;;;7.53;4.07;;;;;;;25.83;65.45;100646.31;5048620;28;20194;-73
2021/07/10 09:24:06;;;;;;;6.22;3.50;;;;;;;25.52;65.20;100635.78;5051400;28;20205;-72
2021/07/10 09:26:40;;;;;;;7.93;3.70;;;;;;;25.79;65.79;100640.38;5045810;28;20210;-73
2021/07/10 09:29:12;;;;;;;7.68;3.65;;;;;;;25.60;66.07;100647.44;5052949;28;20208;-74
2021/07/10 09:31:42;;;;;;;5.90;3.42;;;;;;;25.56;65.43;100642.56;5057437;28;20764;-73
2021/07/10 09:34:13;;;;;;;4.47;3.20;;;;;;;25.63;65.06;100649.78;5040480;28;20205;-73
2021/07/10 09:36:53;;;;;;;4.07;3.20;;;;;;;25.77;66.70;100653.50;5056266;28;20216;-73
2021/07/10 09:39:23;;;;;;;8.48;3.33;;;;;;;25.61;65.93;100654.66;5050505;28;20194;-73
2021/07/10 09:41:53;;;;;;;4.40;3.53;;;;;;;25.46;65.55;100645.69;5059360;28;20438;-73
2021/07/10 09:44:21;;;;;;;5.93;3.93;;;;;;;25.43;66.16;100640.63;5063946;28;20201;-73
2021/07/10 09:46:49;;;;;;;3.45;2.95;;;;;;;25.14;65.42;100627.13;5059827;28;20193;-73
2021/07/10 09:49:29;;;;;;;6.47;3.50;;;;;;;25.23;66.39;100634.13;5056173;28;20204;-73
2021/07/10 09:52:00;;;;;;;6.40;3.80;;;;;;;25.50;66.63;100636.00;5054092;28;20206;-74
2021/07/10 09:54:31;;;;;;;5.68;3.10;;;;;;;25.66;66.11;100637.53;5060023;28;20195;-75
2021/07/10 09:57:02;;;;;;;6.03;3.35;;;;;;;25.34;65.14;100642.66;5054987;28;20206;-74
2021/07/10 09:59:30;;;;;;;5.18;3.30;;;;;;;25.27;65.14;100638.19;5057085;28;20217;-74
2021/07/10 10:02:00;;;;;;;3.80;3.20;;;;;;;24.98;65.56;100634.59;5056834;28;20190;-74
2021/07/10 10:04:33;;;;;;;6.68;3.58;;;;;;;24.94;66.25;100633.28;5056495;28;20224;-72
2021/07/10 10:07:02;;;;;;;5.93;3.57;;;;;;;24.75;66.73;100639.47;5052324;28;20182;-73
2021/07/10 10:09:32;;;;;;;5.73;3.50;;;;;;;24.82;67.13;100636.78;5057073;28;20206;-73
2021/07/10 10:12:02;;;;;;;4.50;3.03;;;;;;;24.85;67.97;100639.97;5053464;28;20220;-73
2021/07/10 10:14:33;;;;;;;4.37;3.43;;;;;;;24.86;67.81;100633.44;5052870;28;20207;-71
2021/07/10 10:17:02;;;;;;;5.07;3.47;;;;;;;24.87;67.90;100632.38;5053882;28;20197;-72
2021/07/10 10:19:33;;;;;;;3.80;3.23;;;;;;;24.83;67.67;100639.34;5053499;28;20228;-71
2021/07/10 10:22:04;;;;;;;4.20;3.20;;;;;;;24.93;68.34;100628.84;5056897;28;20190;-70
2021/07/10 10:24:35;;;;;;;6.07;3.30;;;;;;;25.20;66.46;100629.03;5050423;28;20653;-71
2021/07/10 10:27:03;;;;;;;8.10;3.47;;;;;;;25.30;67.30;100629.53;5051300;28;20791;-71
2021/07/10 10:29:34;;;;;;;5.23;3.20;;;;;;;25.32;67.08;100631.00;5052667;28;20221;-71
2021/07/10 10:32:03;;;;;;;4.23;3.23;;;;;;;25.22;65.66;100635.19;5056369;28;20241;-71
2021/07/10 10:34:32;;;;;;;6.93;2.80;;;;;;;25.08;66.63;100635.09;5052271;28;20583;-71
2021/07/10 10:37:00;;;;;;;13.80;3.55;;;;;;;25.08;66.29;100632.34;5052250;28;20292;-71
2021/07/10 10:39:31;;;;;;;4.50;3.37;;;;;;;25.07;65.62;100597.66;5056371;28;20213;-71
2021/07/10 10:42:03;;;;;;;4.33;3.40;;;;;;;25.35;66.17;100621.50;5053766;28;20844;-70
2021/07/10 10:44:40;;;;;;;5.50;3.47;;;;;;;25.42;65.71;100614.16;5053523;28;20713;-71
2021/07/10 10:47:10;;;;;;;6.07;3.63;;;;;;;25.28;64.49;100610.47;5053026;28;20193;-71
2021/07/10 10:49:45;;;;;;;5.00;4.00;;;;;;;25.35;65.26;100591.25;5061857;28;20229;-71
2021/07/10 10:52:33;;;;;;;4.97;4.35;;;;;;;25.58;64.34;100601.94;5057936;28;20387;-69
2021/07/10 10:55:08;;;;;;;6.75;3.72;;;;;;;25.61;64.77;100596.03;5082295;28;20208;-70
2021/07/10 10:57:45;;;;;;;4.78;3.47;;;;;;;25.63;65.13;100603.03;5057918;28;20308;-70
2021/07/10 11:00:32;;;;;;;5.38;3.90;;;;;;;25.73;64.03;100590.84;5063052;28;20208;-70
2021/07/10 11:03:21;;;;;;;6.05;3.88;;;;;;;25.87;64.33;100596.16;5055011;28;20767;-70
2021/07/10 11:05:57;;;;;;;6.15;3.75;;;;;;;25.95;64.16;100595.09;5052611;28;20574;-69
2021/07/10 11:08:36;;;;;;;5.50;3.78;;;;;;;25.67;63.87;100598.84;5056281;28;20199;-70
2021/07/10 11:11:39;;;;;;;4.32;3.53;;;;;;;25.31;64.29;100598.22;5055380;28;20202;-70
2021/07/10 11:14:16;;;;;;;6.45;3.55;;;;;;;25.25;63.91;100594.38;5058926;28;20232;-70
2021/07/10 11:17:08;;;;;;;8.77;3.90;;;;;;;25.17;63.97;100602.81;5062783;28;20219;-70
2021/07/10 11:19:57;;;;;;;6.70;4.13;;;;;;;25.09;65.06;100605.69;5057167;28;20230;-70
2021/07/10 11:22:53;;;;;;;5.15;4.10;;;;;;;25.15;64.92;100599.41;5066234;28;20232;-70
2021/07/10 11:26:00;;;;;;;6.27;3.90;;;;;;;25.06;65.14;100606.94;5065808;28;20194;-70
2021/07/10 11:28:35;;;;;;;9.83;4.27;;;;;;;25.12;65.54;100609.97;5066425;28;20263;-69
2021/07/10 11:31:08;;;;;;;6.67;4.33;;;;;;;25.26;64.92;100611.72;5053089;28;20230;-68
2021/07/10 11:34:00;;;;;;;4.47;3.47;;;;;;;25.33;64.36;100613.47;5035097;28;20308;-68